Time;durP1;ratioP1;P1;durP2;ratioP2;P2;SDS_P1;SDS_P2;PMS_P1;PMS_P2;Temp;Humidity;BMP_temperature;BMP_pressure;BME280_temperature;BME280_humidity;BME280_pressure;Samples;Min_cycle;Max_cycle;Signal;HPM_P1;HPM_P2
2022/03/15 00:00:49;;;;;;;15.25;6.13;;;6.80;99.90;;;;;;5065308;28;20354;-71
2022/03/15 00:03:15;;;;;;;18.58;6.45;;;6.80;99.90;;;;;;5064149;28;20017;-72
2022/03/15 00:05:41;;;;;;;19.67;6.72;;;6.80;99.90;;;;;;5065495;28;20025;-72
2022/03/15 00:08:07;;;;;;;14.48;6.00;;;6.90;99.90;;;;;;5064096;28;20100;-71
2022/03/15 00:10:33;;;;;;;16.98;6.47;;;6.90;99.90;;;;;;5047902;28;20024;-71
2022/03/15 00:12:59;;;;;;;18.42;6.10;;;7.00;99.90;;;;;;5035096;28;20133;-71
2022/03/15 00:15:26;;;;;;;14.88;6.00;;;7.20;99.90;;;;;;5060684;28;20313;-72
2022/03/15 00:17:53;;;;;;;13.32;5.90;;;7.20;99.90;;;;;;5045225;28;20064;-72
2022/03/15 00:20:21;;;;;;;10.07;5.63;;;7.20;99.90;;;;;;5044113;28;20032;-70
2022/03/15 00:22:48;;;;;;;20.92;5.88;;;7.40;99.90;;;;;;5043794;28;20092;-70
2022/03/15 00:25:16;;;;;;;16.10;6.38;;;7.40;99.90;;;;;;5060816;28;20036;-72
2022/03/15 00:27:49;;;;;;;15.70;6.47;;;7.40;99.90;;;;;;5043819;28;20209;-71
2022/03/15 00:30:14;;;;;;;14.13;6.00;;;7.30;99.90;;;;;;5043996;28;20029;-71
2022/03/15 00:32:41;;;;;;;18.10;6.35;;;7.50;99.90;;;;;;5043069;28;20033;-72
2022/03/15 00:35:10;;;;;;;17.45;5.90;;;7.50;99.90;;;;;;5044827;28;20354;-71
2022/03/15 00:37:36;;;;;;;21.55;6.63;;;7.50;99.90;;;;;;5053201;28;20255;-74
2022/03/15 00:40:04;;;;;;;11.85;6.07;;;7.40;99.90;;;;;;5062314;28;20633;-71
2022/03/15 00:42:29;;;;;;;16.00;6.28;;;7.40;99.90;;;;;;5063688;28;20017;-74
2022/03/15 00:44:55;;;;;;;20.95;7.50;;;7.40;99.90;;;;;;5064646;28;20020;-71
2022/03/15 00:47:21;;;;;;;17.50;6.70;;;7.40;99.90;;;;;;5079758;28;20350;-73
2022/03/15 00:49:47;;;;;;;15.32;7.53;;;7.40;99.90;;;;;;5063289;28;20068;-71
2022/03/15 00:52:12;;;;;;;14.18;6.50;;;7.30;99.90;;;;;;5046779;28;20040;-71
2022/03/15 00:54:38;;;;;;;11.85;6.28;;;7.20;99.90;;;;;;5063512;28;20031;-73
2022/03/15 00:57:04;;;;;;;15.68;6.30;;;7.10;99.90;;;;;;5063215;28;20088;-73
2022/03/15 00:59:30;;;;;;;13.10;6.80;;;7.10;99.90;;;;;;5030094;28;20324;-72
2022/03/15 01:01:56;;;;;;;21.58;6.55;;;7.00;99.90;;;;;;5062490;28;20075;-71
2022/03/15 01:04:22;;;;;;;17.65;7.15;;;7.10;99.90;;;;;;5063125;28;20029;-72
2022/03/15 01:06:48;;;;;;;13.07;6.32;;;7.00;99.90;;;;;;5063104;28;20028;-72
2022/03/15 01:09:13;;;;;;;15.57;6.55;;;7.00;99.90;;;;;;5046710;28;20028;-72
2022/03/15 01:11:39;;;;;;;19.30;6.43;;;7.00;99.90;;;;;;5044757;28;20033;-73
2022/03/15 01:14:05;;;;;;;15.38;6.50;;;7.00;99.90;;;;;;5044001;28;20380;-71
2022/03/15 01:16:31;;;;;;;17.48;7.25;;;7.10;99.90;;;;;;5060070;28;20297;-73
2022/03/15 01:18:58;;;;;;;19.52;8.45;;;7.20;99.90;;;;;;5042601;28;20036;-73
2022/03/15 01:21:24;;;;;;;19.65;7.40;;;7.10;99.90;;;;;;5044088;28;20021;-71
2022/03/15 01:23:50;;;;;;;15.00;7.28;;;7.10;99.90;;;;;;5042946;28;20021;-73
2022/03/15 01:26:15;;;;;;;19.35;7.20;;;7.10;99.90;;;;;;5059663;28;20017;-72
2022/03/15 01:28:42;;;;;;;18.77;7.85;;;7.20;99.90;;;;;;5043843;28;20049;-72
2022/03/15 01:31:08;;;;;;;16.15;8.38;;;7.20;99.90;;;;;;5042246;28;20059;-73
2022/03/15 01:33:35;;;;;;;19.40;8.00;;;7.10;99.90;;;;;;5058943;28;20026;-70
2022/03/15 01:36:00;;;;;;;17.55;8.82;;;7.10;99.90;;;;;;5059561;28;20041;-69
2022/03/15 01:38:26;;;;;;;18.17;9.00;;;7.20;99.90;;;;;;5058083;28;20066;-71
2022/03/15 01:40:52;;;;;;;27.05;10.27;;;7.20;99.90;;;;;;5060898;28;20029;-72
2022/03/15 01:43:17;;;;;;;21.70;10.05;;;7.10;99.90;;;;;;5079234;28;20064;-71
2022/03/15 01:45:43;;;;;;;24.70;10.18;;;7.10;99.90;;;;;;5062253;28;20024;-72
2022/03/15 01:48:10;;;;;;;19.48;10.25;;;7.10;99.90;;;;;;5061907;28;20099;-74
2022/03/15 01:50:36;;;;;;;28.02;10.52;;;7.10;99.90;;;;;;5079347;28;20024;-73
2022/03/15 01:53:03;;;;;;;20.35;10.32;;;7.10;99.90;;;;;;5079176;28;20029;-71
2022/03/15 01:55:29;;;;;;;26.10;11.27;;;7.00;99.90;;;;;;5079011;28;20028;-70
2022/03/15 01:57:55;;;;;;;24.27;10.10;;;7.10;99.90;;;;;;5079088;28;20095;-70
2022/03/15 02:00:21;;;;;;;23.65;9.88;;;7.10;99.90;;;;;;5062496;28;20017;-71
2022/03/15 02:02:47;;;;;;;24.45;10.02;;;7.10;99.90;;;;;;5062878;28;20323;-70
2022/03/15 02:05:13;;;;;;;23.80;9.88;;;7.10;99.90;;;;;;5078834;28;20025;-70
2022/03/15 02:07:38;;;;;;;20.30;10.18;;;7.00;99.90;;;;;;5062048;28;20251;-72
2022/03/15 02:10:06;;;;;;;23.63;10.45;;;6.90;99.90;;;;;;5062726;28;20185;-71
2022/03/15 02:12:38;;;;;;;22.23;10.35;;;6.90;99.90;;;;;;5069621;28;20040;-72
2022/03/15 02:15:06;;;;;;;17.67;9.38;;;6.90;99.90;;;;;;5042400;28;20029;-71
2022/03/15 02:17:32;;;;;;;22.13;10.20;;;6.90;99.90;;;;;;5058591;28;20030;-71
2022/03/15 02:19:58;;;;;;;26.33;10.10;;;6.80;99.90;;;;;;5025852;28;20201;-71
2022/03/15 02:22:25;;;;;;;18.55;9.25;;;6.80;99.90;;;;;;5009597;28;20309;-70
2022/03/15 02:24:51;;;;;;;20.95;10.38;;;6.70;99.90;;;;;;5041868;28;20017;-72
2022/03/15 02:27:20;;;;;;;21.80;10.10;;;6.60;99.90;;;;;;5043538;28;20041;-71
2022/03/15 02:29:45;;;;;;;24.30;10.65;;;6.60;99.90;;;;;;5041731;28;20025;-71
2022/03/15 02:32:11;;;;;;;23.95;11.13;;;6.50;99.90;;;;;;5025032;28;20105;-71
2022/03/15 02:34:37;;;;;;;21.05;10.30;;;6.50;99.90;;;;;;5042369;28;20069;-74
2022/03/15 02:37:03;;;;;;;25.55;11.45;;;6.40;99.90;;;;;;5046088;28;20340;-71
2022/03/15 02:39:29;;;;;;;33.08;12.13;;;6.40;99.90;;;;;;5061660;28;20383;-71
2022/03/15 02:41:55;;;;;;;28.05;11.27;;;6.40;99.90;;;;;;5060458;28;20021;-70
2022/03/15 02:44:23;;;;;;;27.00;11.18;;;6.30;99.90;;;;;;5078277;28;20029;-71
2022/03/15 02:46:50;;;;;;;18.83;10.20;;;6.30;99.90;;;;;;5078239;28;20048;-70
2022/03/15 02:49:16;;;;;;;29.77;12.55;;;6.30;99.90;;;;;;5061711;28;20056;-70
2022/03/15 02:51:43;;;;;;;26.20;11.57;;;6.30;99.90;;;;;;5061592;28;20037;-73
2022/03/15 02:54:11;;;;;;;28.45;11.90;;;6.30;99.90;;;;;;5061793;28;20308;-70
2022/03/15 02:56:42;;;;;;;22.73;12.57;;;6.20;99.90;;;;;;5061731;28;20031;-71
2022/03/15 02:59:09;;;;;;;23.88;11.65;;;6.10;99.90;;;;;;5062555;28;20312;-71
2022/03/15 03:01:35;;;;;;;26.20;11.07;;;6.10;99.90;;;;;;5061809;28;20021;-70
2022/03/15 03:04:01;;;;;;;28.40;12.32;;;6.10;99.90;;;;;;5062613;28;20025;-69
2022/03/15 03:06:27;;;;;;;20.70;10.40;;;6.10;99.90;;;;;;5061571;28;20051;-70
2022/03/15 03:08:52;;;;;;;29.05;11.40;;;6.10;99.90;;;;;;5078114;28;20017;-70
2022/03/15 03:11:18;;;;;;;31.35;11.85;;;6.10;99.90;;;;;;5061668;28;20091;-69
2022/03/15 03:13:44;;;;;;;36.42;12.25;;;6.10;99.90;;;;;;5061335;28;20316;-70
2022/03/15 03:16:13;;;;;;;31.13;12.30;;;6.10;99.90;;;;;;5028344;28;20020;-71
2022/03/15 03:18:39;;;;;;;31.00;12.50;;;6.10;99.90;;;;;;5078458;28;20025;-70
2022/03/15 03:21:06;;;;;;;26.55;11.68;;;6.00;99.90;;;;;;5044722;28;20025;-70
2022/03/15 03:23:33;;;;;;;23.38;11.95;;;5.90;99.90;;;;;;5064643;28;20021;-70
2022/03/15 03:25:59;;;;;;;24.85;12.18;;;5.90;99.90;;;;;;5048916;28;20035;-70
2022/03/15 03:28:25;;;;;;;27.98;11.48;;;5.90;99.90;;;;;;5032062;28;20204;-70
2022/03/15 03:30:51;;;;;;;29.25;11.70;;;5.80;99.90;;;;;;5065842;28;20208;-73
2022/03/15 03:33:19;;;;;;;22.48;11.68;;;5.80;99.90;;;;;;5064402;28;20024;-70
2022/03/15 03:35:45;;;;;;;22.25;11.85;;;5.80;99.90;;;;;;5064862;28;20027;-72
2022/03/15 03:38:12;;;;;;;25.45;12.45;;;5.80;99.90;;;;;;5066177;28;20025;-71
2022/03/15 03:40:38;;;;;;;29.63;13.85;;;5.80;99.90;;;;;;5081650;28;20043;-70
2022/03/15 03:43:04;;;;;;;28.73;12.70;;;5.80;99.90;;;;;;5064434;28;20028;-70
2022/03/15 03:45:30;;;;;;;26.77;12.40;;;5.80;99.90;;;;;;5064721;28;20090;-71
2022/03/15 03:47:56;;;;;;;21.95;11.13;;;6.00;99.90;;;;;;5064483;28;20096;-74
2022/03/15 03:50:22;;;;;;;19.35;11.00;;;6.10;99.90;;;;;;5064381;28;20029;-72
2022/03/15 03:52:48;;;;;;;23.75;11.40;;;6.20;99.90;;;;;;5064161;28;20293;-72
2022/03/15 03:55:14;;;;;;;21.20;10.80;;;6.20;99.90;;;;;;5081075;28;20080;-71
2022/03/15 03:57:39;;;;;;;27.80;10.95;;;6.30;99.90;;;;;;5064561;28;20021;-70
2022/03/15 04:00:06;;;;;;;23.35;10.23;;;6.40;99.90;;;;;;5065629;28;20025;-70
2022/03/15 04:02:32;;;;;;;22.33;11.07;;;6.40;99.90;;;;;;5080629;28;20013;-71
2022/03/15 04:04:58;;;;;;;18.02;9.85;;;6.50;99.90;;;;;;5081235;28;20090;-72
2022/03/15 04:07:24;;;;;;;27.00;11.30;;;6.50;99.90;;;;;;5064320;28;20021;-70
2022/03/15 04:09:50;;;;;;;25.13;10.85;;;6.50;99.90;;;;;;5065667;28;20027;-71
2022/03/15 04:12:20;;;;;;;23.05;10.05;;;6.40;99.90;;;;;;5057403;28;20040;-70
2022/03/15 04:14:46;;;;;;;25.58;10.90;;;6.40;99.90;;;;;;5044392;28;20016;-69
2022/03/15 04:17:13;;;;;;;29.25;11.18;;;6.40;99.90;;;;;;5044183;28;20020;-71
2022/03/15 04:19:39;;;;;;;20.10;10.20;;;6.40;99.90;;;;;;5043982;28;20331;-72
2022/03/15 04:22:05;;;;;;;21.27;10.73;;;6.40;99.90;;;;;;5045264;28;20017;-70
2022/03/15 04:24:32;;;;;;;22.33;11.45;;;6.40;99.90;;;;;;5044997;28;20021;-71
2022/03/15 04:26:59;;;;;;;21.65;10.55;;;6.50;99.90;;;;;;5045384;28;20094;-71
2022/03/15 04:29:25;;;;;;;20.58;11.07;;;6.50;99.90;;;;;;5027409;28;20036;-69
2022/03/15 04:31:51;;;;;;;21.58;11.35;;;6.50;99.90;;;;;;5026829;28;20029;-71
2022/03/15 04:34:17;;;;;;;20.02;10.18;;;6.50;99.90;;;;;;5043332;28;20202;-71
2022/03/15 04:36:44;;;;;;;27.58;11.15;;;6.60;99.90;;;;;;5012196;28;20029;-70
2022/03/15 04:39:12;;;;;;;27.95;11.52;;;6.60;99.90;;;;;;5063811;28;20025;-69
2022/03/15 04:41:38;;;;;;;29.23;11.82;;;6.60;99.90;;;;;;5064686;28;20029;-72
2022/03/15 04:44:05;;;;;;;23.13;11.15;;;6.70;99.90;;;;;;5078722;28;20021;-71
2022/03/15 04:46:32;;;;;;;23.83;11.93;;;6.70;99.90;;;;;;5079865;28;20048;-72
2022/03/15 04:48:59;;;;;;;23.15;11.73;;;6.70;99.90;;;;;;5063313;28;20112;-70
2022/03/15 04:51:25;;;;;;;27.45;11.90;;;6.80;99.90;;;;;;5062891;28;20029;-72
2022/03/15 04:53:51;;;;;;;20.77;11.68;;;6.80;99.90;;;;;;5063497;28;20021;-71
2022/03/15 04:56:18;;;;;;;29.42;11.30;;;6.80;99.90;;;;;;5063252;28;20100;-72
2022/03/15 04:58:44;;;;;;;27.40;12.38;;;6.80;99.90;;;;;;5064584;28;20021;-70
2022/03/15 05:01:10;;;;;;;25.08;11.57;;;6.80;99.90;;;;;;5079567;28;20075;-69
2022/03/15 05:03:35;;;;;;;21.27;11.32;;;6.80;99.90;;;;;;5064102;28;20354;-72
2022/03/15 05:06:03;;;;;;;25.27;11.32;;;6.80;99.90;;;;;;5063025;28;20021;-70
2022/03/15 05:08:29;;;;;;;26.02;12.15;;;6.80;99.90;;;;;;5079644;28;20048;-70
2022/03/15 05:11:10;;;;;;;24.67;11.13;;;6.90;99.90;;;;;;5079482;28;20071;-72
2022/03/15 05:13:40;;;;;;;29.10;11.32;;;6.90;99.90;;;;;;5063072;28;20234;-71
2022/03/15 05:16:07;;;;;;;26.90;12.35;;;6.90;99.90;;;;;;5063002;28;20067;-71
2022/03/15 05:18:34;;;;;;;21.10;11.50;;;6.90;99.90;;;;;;5063140;28;20048;-71
2022/03/15 05:21:01;;;;;;;31.52;12.50;;;6.80;99.90;;;;;;5046035;28;20025;-71
2022/03/15 05:23:27;;;;;;;27.45;11.52;;;6.70;99.90;;;;;;5063067;28;20036;-71
2022/03/15 05:25:53;;;;;;;21.65;11.93;;;6.60;99.90;;;;;;5063106;28;20308;-72
2022/03/15 05:28:19;;;;;;;26.70;11.75;;;6.60;99.90;;;;;;5064072;28;20025;-71
2022/03/15 05:30:44;;;;;;;29.35;12.68;;;6.70;99.90;;;;;;5079137;28;20020;-72
2022/03/15 05:33:10;;;;;;;29.05;11.82;;;6.80;99.90;;;;;;5063135;28;20035;-72
2022/03/15 05:35:36;;;;;;;27.25;12.80;;;6.80;99.90;;;;;;5062342;28;20040;-72
2022/03/15 05:38:02;;;;;;;27.10;11.63;;;6.90;99.90;;;;;;5070244;28;20103;-72
2022/03/15 05:40:28;;;;;;;30.58;12.13;;;6.90;99.90;;;;;;5062764;28;20024;-74
2022/03/15 05:42:53;;;;;;;27.50;12.32;;;7.00;99.90;;;;;;5079007;28;20092;-71
2022/03/15 05:45:19;;;;;;;26.15;11.93;;;6.90;99.90;;;;;;5076862;28;20031;-72
2022/03/15 05:47:45;;;;;;;30.20;12.13;;;6.90;99.90;;;;;;5062067;28;20021;-70
2022/03/15 05:50:10;;;;;;;26.10;12.45;;;6.90;99.90;;;;;;5079070;28;20032;-72
2022/03/15 05:52:36;;;;;;;25.63;12.18;;;6.80;99.90;;;;;;5061701;28;20345;-70
2022/03/15 05:55:02;;;;;;;28.27;13.25;;;6.80;99.90;;;;;;5079114;28;20025;-71
2022/03/15 05:57:28;;;;;;;26.70;12.77;;;6.80;99.90;;;;;;5062077;28;20131;-72
2022/03/15 05:59:53;;;;;;;32.42;12.88;;;6.90;99.90;;;;;;5062180;28;20044;-73
2022/03/15 06:02:19;;;;;;;38.17;14.65;;;6.90;99.90;;;;;;5061441;28;20021;-71
2022/03/15 06:04:45;;;;;;;40.53;13.00;;;6.90;99.90;;;;;;5063277;28;20021;-71
2022/03/15 06:07:10;;;;;;;28.83;13.50;;;6.90;99.90;;;;;;5062265;28;20052;-72
2022/03/15 06:09:36;;;;;;;36.30;13.77;;;7.00;99.90;;;;;;5062168;28;20021;-71
2022/03/15 06:12:03;;;;;;;36.05;14.00;;;7.00;99.90;;;;;;5061870;28;20101;-71
2022/03/15 06:14:29;;;;;;;34.30;14.25;;;7.00;99.90;;;;;;5062115;28;20048;-72
2022/03/15 06:16:54;;;;;;;33.22;13.82;;;6.90;99.90;;;;;;5045472;28;20304;-71
2022/03/15 06:19:20;;;;;;;35.10;12.70;;;6.90;99.90;;;;;;5062268;28;20033;-73
2022/03/15 06:21:46;;;;;;;33.38;13.60;;;6.80;99.90;;;;;;5078751;28;20309;-72
2022/03/15 06:24:11;;;;;;;30.13;13.27;;;6.70;99.90;;;;;;5028965;28;20021;-71
2022/03/15 06:26:38;;;;;;;37.47;13.85;;;6.70;99.90;;;;;;5062250;28;20087;-71
2022/03/15 06:29:05;;;;;;;34.22;14.48;;;6.60;99.90;;;;;;5045138;28;20024;-73
2022/03/15 06:31:32;;;;;;;58.20;14.15;;;6.60;99.90;;;;;;5062963;28;20083;-73
2022/03/15 06:33:58;;;;;;;30.70;14.98;;;6.60;99.90;;;;;;5044640;28;20304;-71
2022/03/15 06:36:24;;;;;;;39.28;15.15;;;6.60;99.90;;;;;;5078789;28;20028;-71
2022/03/15 06:38:50;;;;;;;33.42;14.57;;;6.60;99.90;;;;;;5025445;28;20021;-71
2022/03/15 06:41:16;;;;;;;30.08;14.13;;;6.50;99.90;;;;;;5043150;28;20017;-71
2022/03/15 06:43:42;;;;;;;34.45;14.85;;;6.40;99.90;;;;;;5058339;28;20029;-71
2022/03/15 06:46:09;;;;;;;31.42;15.40;;;6.40;99.90;;;;;;5041124;28;20380;-71
2022/03/15 06:48:35;;;;;;;33.10;14.98;;;6.40;99.90;;;;;;5058437;28;20064;-70
2022/03/15 06:51:02;;;;;;;30.38;16.23;;;6.30;99.90;;;;;;5042725;28;20136;-72
2022/03/15 06:53:28;;;;;;;45.90;17.95;;;6.30;99.90;;;;;;5058225;28;20023;-71
2022/03/15 06:55:54;;;;;;;45.85;16.48;;;6.20;99.90;;;;;;5058459;28;20029;-71
2022/03/15 06:58:20;;;;;;;38.20;15.88;;;6.10;99.90;;;;;;5045448;28;20021;-71
2022/03/15 07:00:47;;;;;;;43.33;15.85;;;6.20;99.90;;;;;;5062038;28;20135;-70
2022/03/15 07:03:14;;;;;;;34.42;15.75;;;6.20;99.90;;;;;;5061465;28;20035;-71
2022/03/15 07:05:40;;;;;;;39.83;15.77;;;6.20;99.90;;;;;;5046851;28;20257;-72
2022/03/15 07:08:06;;;;;;;33.58;15.02;;;6.20;99.90;;;;;;5046457;28;20021;-73
2022/03/15 07:10:32;;;;;;;36.75;13.70;;;6.20;99.90;;;;;;5045276;28;20096;-72
2022/03/15 07:12:58;;;;;;;31.70;14.18;;;6.20;99.90;;;;;;5046157;28;20271;-72
2022/03/15 07:15:24;;;;;;;46.08;14.27;;;6.30;99.90;;;;;;5061616;28;20101;-72
2022/03/15 07:17:56;;;;;;;42.78;14.32;;;6.30;99.90;;;;;;5046579;28;20036;-71
2022/03/15 07:20:23;;;;;;;30.23;13.40;;;6.40;99.90;;;;;;5045438;28;20084;-71
2022/03/15 07:22:49;;;;;;;45.83;14.82;;;6.40;99.90;;;;;;5046036;28;20320;-73
2022/03/15 07:25:14;;;;;;;41.22;14.93;;;6.50;99.90;;;;;;5045078;28;20024;-74
2022/03/15 07:27:40;;;;;;;34.45;13.90;;;6.50;99.90;;;;;;5044821;28;20021;-73
2022/03/15 07:30:07;;;;;;;37.75;14.75;;;6.60;99.90;;;;;;5045084;28;20044;-71
2022/03/15 07:32:33;;;;;;;34.60;13.60;;;6.70;99.90;;;;;;5044644;28;20084;-70
2022/03/15 07:34:59;;;;;;;33.13;13.88;;;6.80;99.90;;;;;;5061366;28;20185;-74
2022/03/15 07:37:25;;;;;;;32.22;13.43;;;7.00;99.90;;;;;;5051989;28;20194;-73
2022/03/15 07:39:50;;;;;;;38.17;14.48;;;7.10;99.90;;;;;;5066220;28;20310;-71
2022/03/15 07:42:16;;;;;;;39.45;14.70;;;7.30;99.90;;;;;;5047983;28;20028;-71
2022/03/15 07:44:42;;;;;;;37.38;13.68;;;7.50;99.90;;;;;;5047651;28;20056;-71
2022/03/15 07:47:10;;;;;;;34.38;12.85;;;7.70;99.90;;;;;;5046734;28;20028;-71
2022/03/15 07:49:36;;;;;;;23.45;12.23;;;7.90;99.90;;;;;;5081194;28;20061;-70
2022/03/15 07:52:03;;;;;;;29.77;10.70;;;8.00;99.90;;;;;;5064228;28;20062;-70
2022/03/15 07:54:28;;;;;;;27.30;10.43;;;8.20;99.90;;;;;;5047611;28;20028;-71
2022/03/15 07:56:54;;;;;;;25.88;10.43;;;8.40;99.90;;;;;;5064336;28;20021;-73
2022/03/15 07:59:20;;;;;;;21.40;9.10;;;8.60;99.90;;;;;;5064516;28;20071;-69
2022/03/15 08:01:46;;;;;;;19.52;8.35;;;8.60;99.90;;;;;;5063341;28;20027;-72
2022/03/15 08:04:12;;;;;;;22.73;8.43;;;8.60;99.90;;;;;;5063831;28;20359;-70
2022/03/15 08:06:37;;;;;;;15.57;7.47;;;8.60;99.90;;;;;;5065326;28;20020;-70
2022/03/15 08:09:03;;;;;;;19.85;7.07;;;8.50;99.90;;;;;;5062841;28;20025;-72
2022/03/15 08:11:30;;;;;;;16.75;6.75;;;8.40;99.90;;;;;;5060788;28;20037;-71
2022/03/15 08:13:56;;;;;;;20.90;6.72;;;8.40;99.90;;;;;;5040817;28;20025;-74
2022/03/15 08:16:22;;;;;;;19.70;6.07;;;8.50;99.90;;;;;;5064771;28;20028;-74
2022/03/15 08:18:50;;;;;;;25.73;7.70;;;8.60;99.90;;;;;;5061762;28;20386;-75
2022/03/15 08:21:16;;;;;;;25.38;7.05;;;8.70;99.90;;;;;;5063069;28;20040;-71
2022/03/15 08:23:43;;;;;;;17.30;6.22;;;8.60;99.90;;;;;;5062241;28;20204;-72
2022/03/15 08:26:09;;;;;;;15.35;6.03;;;8.70;99.90;;;;;;5050028;28;20025;-76
2022/03/15 08:28:35;;;;;;;21.02;7.57;;;8.70;99.90;;;;;;5073747;28;20243;-74
2022/03/15 08:31:01;;;;;;;17.42;6.35;;;8.80;99.90;;;;;;5049876;28;20934;-75
2022/03/15 08:33:27;;;;;;;18.38;6.43;;;8.90;99.90;;;;;;5027683;28;20096;-73
2022/03/15 08:35:53;;;;;;;18.42;6.20;;;8.90;99.90;;;;;;5026709;28;20021;-73
2022/03/15 08:38:19;;;;;;;18.02;5.97;;;8.90;99.90;;;;;;5045139;28;20104;-75
2022/03/15 08:40:46;;;;;;;18.60;5.50;;;9.00;99.90;;;;;;5043519;28;20297;-74
2022/03/15 08:43:11;;;;;;;24.90;5.93;;;9.10;99.90;;;;;;5026673;28;20339;-75
2022/03/15 08:45:38;;;;;;;13.48;5.07;;;9.10;99.90;;;;;;5045399;28;20331;-75
2022/03/15 08:48:06;;;;;;;18.30;5.57;;;9.20;99.90;;;;;;5008646;28;20059;-73
2022/03/15 08:50:32;;;;;;;18.17;5.00;;;9.30;99.90;;;;;;5023515;28;20029;-75
2022/03/15 08:52:58;;;;;;;16.88;4.47;;;9.40;99.90;;;;;;5046042;28;20060;-74
2022/03/15 08:55:26;;;;;;;18.40;6.03;;;9.60;99.90;;;;;;5046192;28;20456;-72
2022/03/15 08:57:52;;;;;;;18.95;4.78;;;9.70;99.90;;;;;;5062259;28;20207;-73
2022/03/15 09:00:18;;;;;;;14.43;4.80;;;9.70;99.90;;;;;;5046059;28;20012;-71
2022/03/15 09:02:44;;;;;;;15.30;5.38;;;9.80;99.90;;;;;;5061661;28;20183;-73
2022/03/15 09:05:11;;;;;;;20.60;5.13;;;10.00;99.90;;;;;;5045820;28;20027;-74
2022/03/15 09:07:39;;;;;;;14.13;5.13;;;10.10;99.90;;;;;;5061516;28;20040;-73
2022/03/15 09:10:06;;;;;;;20.88;4.35;;;10.10;99.90;;;;;;5061768;28;20032;-74
2022/03/15 09:12:31;;;;;;;17.52;4.70;;;10.10;99.90;;;;;;5052299;28;20037;-78
2022/03/15 09:14:57;;;;;;;14.55;4.97;;;10.10;99.90;;;;;;5044901;28;20029;-72
2022/03/15 09:17:24;;;;;;;17.20;4.70;;;10.10;99.90;;;;;;5076878;28;20090;-74
2022/03/15 09:19:51;;;;;;;16.88;4.80;;;10.40;99.90;;;;;;5061671;28;20020;-75
2022/03/15 09:22:17;;;;;;;16.17;4.93;;;10.40;99.90;;;;;;5045879;28;20079;-76
2022/03/15 09:24:43;;;;;;;19.00;5.22;;;10.40;99.90;;;;;;5078794;28;20052;-76
2022/03/15 09:27:10;;;;;;;24.23;5.20;;;10.50;99.90;;;;;;5045656;28;20052;-75
2022/03/15 09:29:36;;;;;;;11.90;4.53;;;10.70;99.90;;;;;;5062504;28;20063;-74
2022/03/15 09:32:04;;;;;;;23.50;5.45;;;10.70;99.90;;;;;;5045176;28;20051;-75
2022/03/15 09:34:30;;;;;;;15.32;5.05;;;10.80;99.90;;;;;;5046348;28;20096;-78
2022/03/15 09:36:59;;;;;;;20.63;5.35;;;10.90;99.90;;;;;;5078796;28;20032;-73
2022/03/15 09:39:25;;;;;;;18.17;5.30;;;11.00;99.90;;;;;;5045942;28;20017;-74
2022/03/15 09:41:55;;;;;;;17.85;5.13;;;11.10;99.90;;;;;;5044192;28;20020;-74
2022/03/15 09:44:27;;;;;;;16.17;4.82;;;11.20;99.90;;;;;;5029231;28;20028;-77
2022/03/15 09:46:59;;;;;;;17.83;5.15;;;11.30;99.90;;;;;;5061461;28;20025;-75
2022/03/15 09:49:26;;;;;;;16.38;4.85;;;11.40;99.90;;;;;;5060527;28;20061;-71
2022/03/15 09:51:55;;;;;;;16.30;4.85;;;11.30;99.90;;;;;;5043078;28;20052;-77
2022/03/15 09:54:22;;;;;;;16.00;5.20;;;11.40;99.90;;;;;;5025718;28;20021;-72
2022/03/15 09:56:48;;;;;;;15.55;5.05;;;11.50;99.90;;;;;;5041302;28;20021;-73
2022/03/15 09:59:17;;;;;;;16.23;5.40;;;11.60;99.90;;;;;;5042654;28;20027;-72
2022/03/15 10:01:44;;;;;;;18.77;5.40;;;11.70;99.90;;;;;;5025661;28;20252;-75
2022/03/15 10:04:10;;;;;;;19.25;5.07;;;11.80;99.90;;;;;;5042145;28;20070;-75
2022/03/15 10:06:37;;;;;;;14.48;4.88;;;11.80;99.90;;;;;;5035164;28;20219;-73
2022/03/15 10:09:05;;;;;;;16.58;5.03;;;11.90;99.70;;;;;;5058480;28;20292;-77
2022/03/15 10:11:32;;;;;;;14.82;4.90;;;11.90;99.50;;;;;;5058370;28;20076;-71
2022/03/15 10:13:58;;;;;;;16.10;4.88;;;11.80;99.60;;;;;;5062918;28;20048;-75
2022/03/15 10:16:33;;;;;;;13.40;5.28;;;12.00;99.60;;;;;;5060993;28;20331;-76
2022/03/15 10:18:59;;;;;;;14.23;5.30;;;12.00;99.20;;;;;;5062045;28;20228;-76
2022/03/15 10:21:47;;;;;;;19.30;4.88;;;12.10;99.10;;;;;;5044935;28;20095;-79
2022/03/15 10:24:18;;;;;;;19.20;5.68;;;12.20;99.50;;;;;;5064370;28;20245;-73
2022/03/15 10:26:47;;;;;;;15.90;5.20;;;12.20;98.80;;;;;;5061789;28;20024;-82
2022/03/15 10:29:14;;;;;;;16.77;4.57;;;12.20;98.70;;;;;;5062306;28;20017;-80
2022/03/15 10:31:41;;;;;;;12.85;4.85;;;12.30;99.00;;;;;;5054915;28;20048;-76
2022/03/15 10:34:08;;;;;;;17.65;5.30;;;12.30;98.90;;;;;;5045045;28;20221;-75
2022/03/15 10:36:38;;;;;;;17.88;5.38;;;12.30;98.70;;;;;;5045625;28;20020;-74
2022/03/15 10:39:04;;;;;;;17.50;5.07;;;12.30;98.60;;;;;;5023629;28;20316;-76
2022/03/15 10:41:30;;;;;;;12.35;4.88;;;12.20;99.10;;;;;;5065582;28;20036;-76
2022/03/15 10:43:57;;;;;;;17.15;5.13;;;12.20;98.70;;;;;;5045857;28;20092;-75
2022/03/15 10:46:25;;;;;;;18.83;4.97;;;12.20;98.60;;;;;;5047505;28;20021;-75
2022/03/15 10:49:00;;;;;;;13.48;4.32;;;12.10;99.30;;;;;;5055005;28;20045;-75
2022/03/15 10:51:27;;;;;;;18.23;5.32;;;12.00;98.80;;;;;;5061780;28;20317;-77
2022/03/15 10:54:00;;;;;;;20.00;5.13;;;12.00;98.90;;;;;;5029158;28;20042;-75
2022/03/15 10:56:26;;;;;;;18.30;5.47;;;12.10;98.90;;;;;;5045103;28;20124;-74
2022/03/15 10:59:00;;;;;;;16.27;4.82;;;12.00;99.30;;;;;;5046055;28;20099;-73
2022/03/15 11:01:28;;;;;;;21.48;5.32;;;12.00;99.50;;;;;;5028844;28;20292;-78
2022/03/15 11:04:03;;;;;;;26.08;5.22;;;11.90;99.60;;;;;;5031118;28;20076;-79
2022/03/15 11:06:43;;;;;;;19.00;5.00;;;11.80;99.90;;;;;;5066484;28;20025;-79
2022/03/15 11:09:31;;;;;;;18.15;5.03;;;11.90;99.80;;;;;;5064642;28;20227;-76
2022/03/15 11:12:05;;;;;;;14.70;4.82;;;12.20;99.50;;;;;;5061654;28;20009;-79
2022/03/15 11:14:41;;;;;;;30.27;5.60;;;12.30;99.50;;;;;;5032183;28;20094;-76
2022/03/15 11:17:13;;;;;;;17.13;5.07;;;12.60;99.40;;;;;;5081545;28;20036;-77
2022/03/15 11:19:44;;;;;;;22.67;5.35;;;13.00;98.70;;;;;;5064441;28;20032;-77
2022/03/15 11:22:11;;;;;;;15.20;5.53;;;13.30;98.40;;;;;;5047502;28;20029;-72
2022/03/15 11:24:42;;;;;;;15.27;5.05;;;13.40;97.90;;;;;;5061854;28;20032;-74
2022/03/15 11:27:08;;;;;;;20.15;5.63;;;13.50;97.50;;;;;;5060605;28;20259;-73
2022/03/15 11:29:36;;;;;;;17.77;5.53;;;13.70;97.30;;;;;;5045727;28;20013;-75
2022/03/15 11:32:02;;;;;;;13.88;5.25;;;13.70;97.60;;;;;;5027319;28;20067;-76
2022/03/15 11:34:29;;;;;;;16.80;4.97;;;13.70;97.00;;;;;;5028336;28;20021;-73
2022/03/15 11:36:57;;;;;;;17.02;4.97;;;13.70;96.70;;;;;;5047507;28;20242;-74
2022/03/15 11:39:24;;;;;;;13.50;4.80;;;13.80;96.90;;;;;;5047593;28;20304;-73
2022/03/15 11:41:50;;;;;;;21.90;5.03;;;14.00;96.70;;;;;;5063810;28;20288;-74
2022/03/15 11:44:28;;;;;;;16.60;4.97;;;14.00;96.10;;;;;;5046584;28;20070;-74
2022/03/15 11:47:18;;;;;;;15.13;4.85;;;14.00;96.50;;;;;;5048477;28;20021;-74
2022/03/15 11:49:50;;;;;;;14.45;4.07;;;14.00;96.20;;;;;;5062737;28;20115;-71
2022/03/15 11:52:31;;;;;;;12.73;4.57;;;14.00;96.00;;;;;;5063797;28;20037;-72
2022/03/15 11:55:26;;;;;;;26.48;5.82;;;14.10;96.00;;;;;;5065325;28;20057;-73
2022/03/15 11:57:59;;;;;;;17.08;4.70;;;14.10;96.40;;;;;;5016907;28;20033;-74
2022/03/15 12:00:42;;;;;;;18.80;5.15;;;14.00;96.10;;;;;;5060694;28;20021;-72
2022/03/15 12:03:09;;;;;;;18.67;5.00;;;13.90;96.00;;;;;;5079972;28;20024;-74
2022/03/15 12:05:57;;;;;;;18.85;5.30;;;13.90;96.20;;;;;;5060382;28;20068;-73
2022/03/15 12:08:26;;;;;;;19.13;4.50;;;14.10;96.10;;;;;;5057237;28;20021;-75
2022/03/15 12:11:06;;;;;;;13.65;4.10;;;14.30;95.60;;;;;;5043050;28;20022;-75
2022/03/15 12:13:37;;;;;;;15.95;3.78;;;14.40;95.10;;;;;;5043752;28;20030;-74
2022/03/15 12:16:15;;;;;;;18.10;4.50;;;14.40;94.80;;;;;;5058279;28;20019;-72
2022/03/15 12:18:44;;;;;;;17.38;4.40;;;14.50;94.30;;;;;;5048103;28;20024;-75
2022/03/15 12:21:11;;;;;;;20.23;3.40;;;14.50;94.60;;;;;;5063643;28;20023;-74
2022/03/15 12:23:46;;;;;;;16.13;3.78;;;14.40;93.50;;;;;;5052941;28;20075;-73
2022/03/15 12:26:18;;;;;;;12.55;3.95;;;14.40;94.10;;;;;;5079027;28;20303;-74
2022/03/15 12:28:54;;;;;;;39.47;5.60;;;14.60;94.00;;;;;;5062765;28;20033;-77
2022/03/15 12:31:41;;;;;;;19.20;4.40;;;14.90;93.50;;;;;;5062779;28;20037;-74
2022/03/15 12:34:10;;;;;;;31.83;5.38;;;15.10;93.50;;;;;;5062120;28;20339;-74
2022/03/15 12:36:49;;;;;;;13.43;3.88;;;15.40;93.30;;;;;;5059490;28;20316;-74
2022/03/15 12:39:18;;;;;;;10.90;3.38;;;15.70;92.40;;;;;;5050004;28;20041;-73